Time;durP1;ratioP1;P1;durP2;ratioP2;P2;SDS_P1;SDS_P2;PMS_P1;PMS_P2;Temp;Humidity;BMP_temperature;BMP_pressure;BME280_temperature;BME280_humidity;BME280_pressure;Samples;Min_cycle;Max_cycle;Signal;HPM_P1;HPM_P2
2022/01/22 00:00:27;;;;;;;0.40;0.40;;;1.40;99.90;;;;;;5262845;28;20047;-76
2022/01/22 00:02:58;;;;;;;0.57;0.57;;;1.40;99.90;;;;;;5263356;28;20016;-75
2022/01/22 00:05:29;;;;;;;0.80;0.80;;;1.50;99.90;;;;;;5251052;28;20637;-74
2022/01/22 00:08:03;;;;;;;0.57;0.57;;;1.40;99.90;;;;;;5278871;28;20024;-77
2022/01/22 00:10:42;;;;;;;0.47;0.47;;;1.50;99.90;;;;;;5250620;28;20367;-76
2022/01/22 00:15:53;;;;;;;0.40;0.40;;;1.50;99.90;;;;;;5229774;28;20404;-77
2022/01/22 00:18:24;;;;;;;0.60;0.60;;;1.50;99.90;;;;;;5266557;28;20020;-76
2022/01/22 00:21:00;;;;;;;0.98;0.98;;;1.60;99.90;;;;;;5249477;28;20035;-76
2022/01/22 00:23:32;;;;;;;0.50;0.50;;;1.60;99.90;;;;;;5265972;28;20032;-76
2022/01/22 00:26:05;;;;;;;0.60;0.60;;;1.70;99.90;;;;;;5278133;28;20948;-77
2022/01/22 00:28:41;;;;;;;0.50;0.50;;;1.60;99.90;;;;;;5244238;28;20056;-77
2022/01/22 00:31:14;;;;;;;0.38;0.38;;;1.60;99.90;;;;;;5263427;28;20054;-77
2022/01/22 00:33:45;;;;;;;0.40;0.40;;;1.60;99.90;;;;;;5261552;28;20044;-77
2022/01/22 00:36:21;;;;;;;0.40;0.40;;;1.60;99.90;;;;;;5241339;28;20052;-76
2022/01/22 00:38:55;;;;;;;0.40;0.40;;;1.60;99.90;;;;;;5259053;28;20048;-76
2022/01/22 00:41:26;;;;;;;0.60;0.60;;;1.60;99.90;;;;;;5249698;28;20074;-77
2022/01/22 00:44:00;;;;;;;0.40;0.40;;;1.60;99.90;;;;;;5239036;28;20645;-76
2022/01/22 00:46:36;;;;;;;0.50;0.50;;;1.60;99.90;;;;;;5261295;28;20039;-76
2022/01/22 00:49:07;;;;;;;0.40;0.40;;;1.50;99.90;;;;;;5264645;28;20127;-76
2022/01/22 00:51:38;;;;;;;0.60;0.60;;;1.60;99.90;;;;;;5262866;28;20032;-78
2022/01/22 00:54:09;;;;;;;0.47;0.47;;;1.70;99.90;;;;;;5244671;28;20374;-76
2022/01/22 00:56:40;;;;;;;0.40;0.40;;;1.70;99.90;;;;;;5263417;28;20024;-76
2022/01/22 00:59:16;;;;;;;0.43;0.43;;;1.70;99.90;;;;;;5262792;28;20039;-77
2022/01/22 01:01:55;;;;;;;0.60;0.60;;;1.80;99.90;;;;;;5236191;28;20473;-76
2022/01/22 01:04:32;;;;;;;0.52;0.52;;;1.80;99.90;;;;;;5204158;28;20044;-76
2022/01/22 01:07:04;;;;;;;0.80;0.80;;;1.70;99.90;;;;;;5246681;28;20078;-76
2022/01/22 01:09:38;;;;;;;0.40;0.40;;;1.80;99.90;;;;;;5245760;28;20034;-76
2022/01/22 01:12:12;;;;;;;0.50;0.50;;;1.80;99.90;;;;;;5261963;28;20470;-76
2022/01/22 01:34:38;;;;;;;0.43;0.43;;;1.80;99.90;;;;;;5197084;28;20029;-76
2022/01/22 01:37:15;;;;;;;0.57;0.57;;;1.80;99.90;;;;;;5197093;28;20028;-76
2022/01/22 01:39:53;;;;;;;0.80;0.80;;;1.80;99.90;;;;;;5181388;28;20038;-76
2022/01/22 01:43:05;;;;;;;0.50;0.50;;;1.70;99.90;;;;;;5181225;28;20061;-76
2022/01/22 01:45:22;;;;;;;0.52;0.52;;;1.70;99.90;;;;;;5188254;28;20067;-76
2022/01/22 01:48:02;;;;;;;0.63;0.63;;;1.70;99.90;;;;;;5202620;28;20041;-76
2022/01/22 01:50:38;;;;;;;0.60;0.60;;;1.70;99.90;;;;;;5217496;28;20104;-76
2022/01/22 01:53:20;;;;;;;0.52;0.52;;;1.70;99.90;;;;;;5201773;28;20152;-76
2022/01/22 01:56:04;;;;;;;0.45;0.45;;;1.60;99.90;;;;;;5238749;28;20448;-76
2022/01/22 01:58:38;;;;;;;0.55;0.55;;;1.60;99.90;;;;;;5260320;28;20024;-76
2022/01/22 02:01:09;;;;;;;0.40;0.40;;;1.60;99.90;;;;;;5259469;28;20094;-77
2022/01/22 02:03:39;;;;;;;0.40;0.40;;;1.70;99.90;;;;;;5241861;28;20035;-77
2022/01/22 02:06:10;;;;;;;0.52;0.52;;;1.60;99.90;;;;;;5248969;28;20137;-76
2022/01/22 02:08:43;;;;;;;0.57;0.57;;;1.70;99.90;;;;;;5260939;28;20819;-77
2022/01/22 02:11:17;;;;;;;1.13;1.02;;;1.60;99.90;;;;;;5262246;28;20028;-78
2022/01/22 02:25:17;;;;;;;0.50;0.50;;;1.70;99.90;;;;;;5242977;28;20027;-77
2022/01/22 02:27:48;;;;;;;0.40;0.40;;;1.70;99.90;;;;;;5242690;28;20036;-77
2022/01/22 02:30:23;;;;;;;0.60;0.60;;;1.70;99.90;;;;;;5269066;28;20059;-78
2022/01/22 02:35:58;;;;;;;0.38;0.38;;;1.70;99.90;;;;;;5261364;28;20023;-77
2022/01/22 02:38:47;;;;;;;0.50;0.50;;;1.60;99.90;;;;;;5246381;28;20036;-77
2022/01/22 02:41:25;;;;;;;0.68;0.68;;;1.60;99.90;;;;;;5229486;28;20044;-77
2022/01/22 02:44:00;;;;;;;0.50;0.50;;;1.70;99.90;;;;;;5243614;28;20144;-77
2022/01/22 02:46:38;;;;;;;0.40;0.40;;;1.70;99.90;;;;;;5244637;28;20036;-77
2022/01/22 02:49:11;;;;;;;0.40;0.40;;;1.80;99.90;;;;;;5243571;28;20066;-77
2022/01/22 02:51:48;;;;;;;0.52;0.52;;;1.60;99.90;;;;;;5262541;28;20305;-77
2022/01/22 02:54:21;;;;;;;0.60;0.60;;;1.60;99.90;;;;;;5245757;28;20095;-76
2022/01/22 02:56:58;;;;;;;0.60;0.60;;;1.60;99.90;;;;;;5244513;28;20024;-78
2022/01/22 02:59:32;;;;;;;0.50;0.50;;;1.60;99.90;;;;;;5243855;28;20439;-78
2022/01/22 03:02:04;;;;;;;0.50;0.50;;;1.60;99.90;;;;;;5227657;28;20032;-78
2022/01/22 03:04:39;;;;;;;1.08;1.08;;;1.50;99.90;;;;;;5217264;28;20108;-77
2022/01/22 03:07:11;;;;;;;0.55;0.55;;;1.50;99.90;;;;;;5260717;28;20028;-77
2022/01/22 03:09:47;;;;;;;0.52;0.52;;;1.50;99.90;;;;;;5266824;28;20035;-77
2022/01/22 03:18:05;;;;;;;0.40;0.40;;;1.50;99.90;;;;;;5248970;28;20028;-76
2022/01/22 03:21:27;;;;;;;0.45;0.45;;;1.60;99.90;;;;;;5235895;28;20046;-77
2022/01/22 03:27:29;;;;;;;0.43;0.43;;;1.70;99.90;;;;;;5251493;28;20036;-77
2022/01/22 03:29:38;;;;;;;0.40;0.40;;;1.80;99.90;;;;;;5260556;28;20044;-77
2022/01/22 03:32:13;;;;;;;0.50;0.50;;;1.80;99.90;;;;;;5249877;28;20083;-77
2022/01/22 03:35:08;;;;;;;;;;;1.90;99.90;;;;;;5232066;28;20031;-77
2022/01/22 03:37:46;;;;;;;0.50;0.50;;;2.00;99.90;;;;;;5229184;28;19912;-76
2022/01/22 03:40:29;;;;;;;0.50;0.50;;;1.90;99.90;;;;;;5274310;28;20024;-77
2022/01/22 03:43:03;;;;;;;0.70;0.70;;;1.90;99.90;;;;;;5248681;28;20024;-78
2022/01/22 03:45:39;;;;;;;0.50;0.50;;;1.90;99.90;;;;;;5231889;28;20020;-77
2022/01/22 03:48:12;;;;;;;0.65;0.65;;;1.80;99.90;;;;;;5236576;28;20087;-76
2022/01/22 03:50:48;;;;;;;0.40;0.40;;;1.70;99.90;;;;;;5252830;28;20020;-76
2022/01/22 03:53:20;;;;;;;0.60;0.60;;;1.70;99.90;;;;;;5218377;28;20314;-76
2022/01/22 03:56:06;;;;;;;0.50;0.50;;;1.70;99.90;;;;;;5251317;28;20028;-76
2022/01/22 03:58:41;;;;;;;0.57;0.57;;;1.70;99.90;;;;;;5249371;28;20031;-77
2022/01/22 04:01:45;;;;;;;0.40;0.40;;;1.60;99.90;;;;;;5264834;28;20031;-77
2022/01/22 04:04:17;;;;;;;0.70;0.70;;;1.50;99.90;;;;;;5253219;28;20476;-76
2022/01/22 04:07:37;;;;;;;0.60;0.60;;;1.40;99.90;;;;;;5217483;28;20049;-76
2022/01/22 04:09:45;;;;;;;0.43;0.43;;;1.30;99.90;;;;;;5246991;28;20062;-76
2022/01/22 04:12:24;;;;;;;0.50;0.50;;;1.20;99.90;;;;;;5255851;28;20064;-76
2022/01/22 04:15:01;;;;;;;0.60;0.60;;;1.20;99.90;;;;;;5258792;28;20122;-76
2022/01/22 04:26:03;;;;;;;0.50;0.50;;;1.20;99.90;;;;;;5200123;28;20350;-76
2022/01/22 04:28:34;;;;;;;0.30;0.30;;;1.20;99.90;;;;;;5185922;28;20432;-77
2022/01/22 04:31:07;;;;;;;0.50;0.50;;;1.20;99.90;;;;;;5245442;28;20166;-75
2022/01/22 04:33:42;;;;;;;0.30;0.30;;;1.20;99.90;;;;;;5252226;28;20051;-76
2022/01/22 04:36:15;;;;;;;0.40;0.40;;;1.30;99.90;;;;;;5248516;28;20024;-75
2022/01/22 04:38:48;;;;;;;0.77;0.77;;;1.30;99.90;;;;;;5230771;28;20382;-75
2022/01/22 04:41:22;;;;;;;0.43;0.43;;;1.20;99.90;;;;;;5241372;28;20027;-76
2022/01/22 04:44:00;;;;;;;0.50;0.50;;;1.30;99.90;;;;;;5235376;28;20554;-76
2022/01/22 04:55:01;;;;;;;0.50;0.50;;;1.70;99.90;;;;;;5264575;28;20241;-77
2022/01/22 04:57:57;;;;;;;0.50;0.50;;;1.70;99.90;;;;;;5232244;28;20035;-78
2022/01/22 05:00:40;;;;;;;0.50;0.50;;;1.70;99.90;;;;;;5245013;28;20376;-77
2022/01/22 05:03:17;;;;;;;1.33;0.80;;;1.70;99.90;;;;;;5257260;28;20560;-78
2022/01/22 05:05:48;;;;;;;0.50;0.50;;;1.70;99.90;;;;;;5242179;28;20044;-77
2022/01/22 05:08:21;;;;;;;0.40;0.40;;;1.70;99.90;;;;;;5246993;28;20134;-80
2022/01/22 05:10:54;;;;;;;0.50;0.50;;;1.60;99.90;;;;;;5266098;28;20372;-76
2022/01/22 05:13:25;;;;;;;0.50;0.50;;;1.70;99.90;;;;;;5214984;28;20024;-78
2022/01/22 05:15:55;;;;;;;0.40;0.40;;;1.70;99.90;;;;;;5229321;28;20120;-78
2022/01/22 05:18:29;;;;;;;0.50;0.50;;;1.70;99.90;;;;;;5247612;28;20054;-78
2022/01/22 05:21:08;;;;;;;0.50;0.50;;;1.60;99.90;;;;;;5245822;28;20039;-77
2022/01/22 05:23:43;;;;;;;0.50;0.50;;;1.60;99.90;;;;;;5214765;28;20455;-78
2022/01/22 05:26:53;;;;;;;0.60;0.60;;;1.60;99.90;;;;;;5211314;28;20032;-77
2022/01/22 05:37:16;;;;;;;0.50;0.50;;;1.50;99.90;;;;;;5235347;28;20094;-77
2022/01/22 05:39:48;;;;;;;0.80;0.80;;;1.50;99.90;;;;;;5228928;28;20036;-77
2022/01/22 05:42:24;;;;;;;0.45;0.45;;;1.60;99.90;;;;;;5238185;28;20032;-77
2022/01/22 05:44:54;;;;;;;0.52;0.52;;;1.60;99.90;;;;;;5263697;28;20062;-77
2022/01/22 05:47:27;;;;;;;0.50;0.50;;;1.60;99.90;;;;;;5245344;28;20081;-77
2022/01/22 05:50:00;;;;;;;0.50;0.50;;;1.50;99.90;;;;;;5264816;28;20074;-78
2022/01/22 05:52:39;;;;;;;0.60;0.60;;;1.50;99.90;;;;;;5247813;28;20099;-80
2022/01/22 05:55:38;;;;;;;0.50;0.50;;;1.60;99.90;;;;;;5264406;28;20019;-78
2022/01/22 06:01:00;;;;;;;0.40;0.40;;;1.50;99.90;;;;;;5264927;28;20016;-78
2022/01/22 06:03:34;;;;;;;0.50;0.50;;;1.50;99.90;;;;;;5247110;28;20028;-77
2022/01/22 06:06:07;;;;;;;0.50;0.50;;;1.40;99.90;;;;;;5213245;28;20055;-77
2022/01/22 06:08:48;;;;;;;0.30;0.30;;;1.40;99.90;;;;;;5229398;28;20035;-77
2022/01/22 06:11:28;;;;;;;0.40;0.40;;;1.40;99.90;;;;;;5246364;28;20081;-77
2022/01/22 06:14:07;;;;;;;0.40;0.40;;;1.20;99.90;;;;;;5261493;28;20302;-78
2022/01/22 06:16:44;;;;;;;0.50;0.50;;;1.30;99.90;;;;;;5245504;28;20024;-77
2022/01/22 06:19:15;;;;;;;0.52;0.52;;;1.30;99.90;;;;;;5262646;28;20330;-78
2022/01/22 06:21:54;;;;;;;0.60;0.60;;;1.40;99.90;;;;;;5245644;28;20055;-77
2022/01/22 06:24:28;;;;;;;0.50;0.50;;;1.40;99.90;;;;;;5245814;28;20032;-78
2022/01/22 06:27:01;;;;;;;0.50;0.50;;;1.40;99.90;;;;;;5260663;28;20028;-78
2022/01/22 06:29:34;;;;;;;0.40;0.40;;;1.40;99.90;;;;;;5266407;28;20047;-80
2022/01/22 06:32:07;;;;;;;0.77;0.77;;;1.40;99.90;;;;;;5259917;28;20036;-79
2022/01/22 06:34:39;;;;;;;0.65;0.65;;;1.40;99.90;;;;;;5226374;28;20020;-77
2022/01/22 06:37:09;;;;;;;0.70;0.70;;;1.40;99.90;;;;;;5240564;28;20032;-78
2022/01/22 06:42:33;;;;;;;0.57;0.57;;;1.40;99.90;;;;;;5267288;28;20019;-78
2022/01/22 06:45:05;;;;;;;;;;;1.50;99.90;;;;;;5271498;28;20300;-79
2022/01/22 06:47:36;;;;;;;0.60;0.60;;;1.50;99.90;;;;;;5272619;28;19993;-79
2022/01/22 06:50:08;;;;;;;0.60;0.60;;;1.40;99.90;;;;;;5247099;28;20024;-78
2022/01/22 06:52:40;;;;;;;0.38;0.38;;;1.40;99.90;;;;;;5246757;28;20028;-78
2022/01/22 06:55:16;;;;;;;0.40;0.40;;;1.40;99.90;;;;;;5262954;28;20169;-78
2022/01/22 06:57:50;;;;;;;0.40;0.40;;;1.40;99.90;;;;;;5246414;28;20024;-79
2022/01/22 07:00:21;;;;;;;;;;;1.40;99.90;;;;;;5262235;28;20020;-77
2022/01/22 07:02:52;;;;;;;0.40;0.40;;;1.40;99.90;;;;;;5264405;28;19979;-77
2022/01/22 07:05:26;;;;;;;0.40;0.40;;;1.30;99.90;;;;;;5251945;28;20118;-77
2022/01/22 07:07:56;;;;;;;0.40;0.40;;;1.30;99.90;;;;;;5267951;28;20346;-77
2022/01/22 07:10:27;;;;;;;0.40;0.40;;;1.20;99.90;;;;;;5256994;28;20021;-77
2022/01/22 07:13:02;;;;;;;0.50;0.50;;;1.20;99.90;;;;;;5228085;28;20467;-77
2022/01/22 07:15:39;;;;;;;5.88;2.55;;;1.10;99.90;;;;;;5225392;28;20032;-77
2022/01/22 07:18:14;;;;;;;0.55;0.55;;;1.10;99.90;;;;;;5244686;28;20434;-77
2022/01/22 07:20:50;;;;;;;0.40;0.40;;;1.10;99.90;;;;;;5262720;28;20035;-77
2022/01/22 07:26:08;;;;;;;0.50;0.50;;;1.00;99.90;;;;;;5257156;28;20215;-77
2022/01/22 07:28:39;;;;;;;0.30;0.30;;;1.00;99.90;;;;;;5224865;28;20101;-76
2022/01/22 07:31:11;;;;;;;0.60;0.60;;;1.00;99.90;;;;;;5259726;28;20028;-76
2022/01/22 07:33:43;;;;;;;0.30;0.30;;;1.00;99.90;;;;;;5262155;28;20055;-75
2022/01/22 07:36:19;;;;;;;0.30;0.30;;;1.10;99.90;;;;;;5248142;28;20039;-76
2022/01/22 07:38:53;;;;;;;0.30;0.30;;;1.20;99.90;;;;;;5257495;28;20031;-76
2022/01/22 07:41:24;;;;;;;0.40;0.40;;;1.20;99.90;;;;;;5226474;28;20498;-78
2022/01/22 07:44:00;;;;;;;0.30;0.30;;;1.30;99.90;;;;;;5218353;28;20081;-77
2022/01/22 07:46:36;;;;;;;0.38;0.38;;;1.40;99.90;;;;;;5229553;28;20047;-78
2022/01/22 07:49:07;;;;;;;2.55;2.45;;;1.50;99.90;;;;;;5226435;28;20024;-78
2022/01/22 07:51:38;;;;;;;0.80;0.80;;;1.40;99.90;;;;;;5239935;28;20032;-78
2022/01/22 07:54:11;;;;;;;0.50;0.50;;;1.40;99.90;;;;;;5260513;28;20036;-78
2022/01/22 07:56:45;;;;;;;0.63;0.63;;;1.30;99.90;;;;;;5262663;28;20035;-79
2022/01/22 07:59:19;;;;;;;1.08;1.08;;;1.30;99.90;;;;;;5247158;28;20035;-78
2022/01/22 08:01:53;;;;;;;0.43;0.43;;;1.30;99.90;;;;;;5245193;28;20036;-78
2022/01/22 08:04:25;;;;;;;0.40;0.40;;;1.40;99.90;;;;;;5234420;28;20027;-79
2022/01/22 08:07:03;;;;;;;0.40;0.40;;;1.50;99.90;;;;;;5246129;28;20039;-80
2022/01/22 08:09:34;;;;;;;1.48;1.38;;;1.50;99.90;;;;;;5265156;28;20023;-78
2022/01/22 08:12:11;;;;;;;0.60;0.60;;;1.50;99.90;;;;;;5245167;28;20047;-79
2022/01/22 08:14:46;;;;;;;0.82;0.82;;;1.50;99.90;;;;;;5247197;28;20029;-78
2022/01/22 08:17:20;;;;;;;0.38;0.38;;;1.50;99.90;;;;;;5258073;28;20070;-79
2022/01/22 08:19:54;;;;;;;0.50;0.50;;;1.50;99.90;;;;;;5250199;28;20023;-80
2022/01/22 08:22:25;;;;;;;0.65;0.65;;;1.50;99.90;;;;;;5268415;28;20047;-79
2022/01/22 08:25:00;;;;;;;0.93;0.93;;;1.50;99.90;;;;;;5258372;28;20036;-80
2022/01/22 08:27:41;;;;;;;0.40;0.40;;;1.50;99.90;;;;;;5254253;28;20032;-80
2022/01/22 08:30:14;;;;;;;0.40;0.40;;;1.60;99.90;;;;;;5236749;28;20039;-79
2022/01/22 08:38:24;;;;;;;0.50;0.50;;;1.70;99.90;;;;;;5258735;28;20024;-78
2022/01/22 08:41:01;;;;;;;0.68;0.68;;;1.80;99.90;;;;;;5255524;28;20016;-77
2022/01/22 08:43:32;;;;;;;0.60;0.60;;;1.90;99.90;;;;;;5244727;28;20066;-77
2022/01/22 08:46:06;;;;;;;0.50;0.50;;;2.00;99.90;;;;;;5228161;28;20047;-78
2022/01/22 08:48:40;;;;;;;0.60;0.60;;;2.10;99.90;;;;;;5230064;28;20397;-77
2022/01/22 08:51:16;;;;;;;0.60;0.60;;;2.10;99.90;;;;;;5240990;28;20038;-77
2022/01/22 08:53:55;;;;;;;0.40;0.40;;;2.20;99.90;;;;;;5261165;28;20078;-77
2022/01/22 08:56:32;;;;;;;0.45;0.45;;;2.20;99.90;;;;;;5260103;28;20424;-78
2022/01/22 08:59:06;;;;;;;0.47;0.47;;;2.30;99.90;;;;;;5231951;28;20032;-79
2022/01/22 09:01:43;;;;;;;0.47;0.47;;;2.30;99.90;;;;;;5247296;28;20032;-79
2022/01/22 09:04:16;;;;;;;0.38;0.38;;;2.40;99.90;;;;;;5254742;28;20059;-76
2022/01/22 09:06:47;;;;;;;0.55;0.55;;;2.40;99.90;;;;;;5258804;28;20055;-78
2022/01/22 09:09:25;;;;;;;0.47;0.47;;;2.50;99.90;;;;;;5276135;28;20038;-78
2022/01/22 09:12:02;;;;;;;0.40;0.40;;;2.50;99.90;;;;;;5265123;28;20425;-77
2022/01/22 09:14:33;;;;;;;0.32;0.32;;;2.50;99.90;;;;;;5245343;28;20032;-78
2022/01/22 09:17:07;;;;;;;0.55;0.55;;;2.50;99.90;;;;;;5260887;28;20043;-78
2022/01/22 09:19:39;;;;;;;0.60;0.60;;;2.50;99.90;;;;;;5259104;28;20036;-77
2022/01/22 09:22:11;;;;;;;0.52;0.52;;;2.60;99.90;;;;;;5226873;28;20081;-77
2022/01/22 09:24:42;;;;;;;0.50;0.50;;;2.50;99.90;;;;;;5243144;28;20043;-77
2022/01/22 09:27:16;;;;;;;0.60;0.60;;;2.60;99.90;;;;;;5227298;28;20098;-78
2022/01/22 09:29:50;;;;;;;0.70;0.70;;;2.70;99.90;;;;;;5221950;28;20338;-77
2022/01/22 09:32:21;;;;;;;0.70;0.70;;;2.60;99.90;;;;;;5239452;28;20411;-78
2022/01/22 09:34:54;;;;;;;0.40;0.40;;;2.70;99.90;;;;;;5227227;28;20078;-78
2022/01/22 09:37:35;;;;;;;0.60;0.60;;;2.70;99.90;;;;;;5246200;28;20335;-77
2022/01/22 09:40:07;;;;;;;0.60;0.60;;;2.70;99.90;;;;;;5226497;28;20446;-78
2022/01/22 09:42:41;;;;;;;0.40;0.40;;;2.80;99.90;;;;;;5229123;28;20542;-79
2022/01/22 09:45:18;;;;;;;0.60;0.60;;;2.80;99.90;;;;;;5263574;28;20052;-77
2022/01/22 09:47:51;;;;;;;0.60;0.60;;;2.90;99.90;;;;;;5225686;28;20042;-78
2022/01/22 09:50:36;;;;;;;0.55;0.55;;;2.90;99.90;;;;;;5231259;28;20036;-78
2022/01/22 09:53:08;;;;;;;0.50;0.50;;;2.90;99.90;;;;;;5250792;28;20039;-77
2022/01/22 09:55:39;;;;;;;0.52;0.52;;;3.00;99.90;;;;;;5224988;28;20039;-77
2022/01/22 09:58:13;;;;;;;0.50;0.50;;;3.10;99.90;;;;;;5251578;28;20059;-77
2022/01/22 10:00:45;;;;;;;0.57;0.57;;;3.10;99.90;;;;;;5240442;28;20048;-77
2022/01/22 10:03:27;;;;;;;0.40;0.40;;;3.20;99.90;;;;;;5228229;28;20120;-77
2022/01/22 10:06:00;;;;;;;0.40;0.40;;;3.30;99.90;;;;;;5226341;28;20102;-76
2022/01/22 10:08:32;;;;;;;0.73;0.73;;;3.40;99.90;;;;;;5223252;28;20035;-76
2022/01/22 10:11:34;;;;;;;0.70;0.70;;;3.50;99.90;;;;;;5238116;28;21352;-75
2022/01/22 10:14:07;;;;;;;0.60;0.60;;;3.50;99.90;;;;;;5255762;28;20107;-75
2022/01/22 10:16:40;;;;;;;0.43;0.43;;;3.50;99.90;;;;;;5239568;28;20458;-76
2022/01/22 10:19:22;;;;;;;0.50;0.50;;;3.50;99.90;;;;;;5255942;28;20095;-76
2022/01/22 10:22:03;;;;;;;0.55;0.55;;;3.60;99.90;;;;;;5239322;28;20058;-76
2022/01/22 10:24:44;;;;;;;0.70;0.70;;;3.60;99.90;;;;;;5240382;28;20159;-76
2022/01/22 10:27:45;;;;;;;0.40;0.40;;;3.60;99.90;;;;;;5243323;28;20031;-76
2022/01/22 10:30:20;;;;;;;0.60;0.60;;;3.70;99.90;;;;;;5256762;28;20141;-76
2022/01/22 10:33:04;;;;;;;0.40;0.40;;;3.60;99.90;;;;;;5252681;28;20078;-76
2022/01/22 10:35:35;;;;;;;0.60;0.60;;;3.50;99.90;;;;;;5237354;28;20143;-76
2022/01/22 10:38:06;;;;;;;0.52;0.52;;;3.50;99.90;;;;;;5221600;28;20065;-77
2022/01/22 10:40:42;;;;;;;0.38;0.38;;;3.60;99.90;;;;;;5218223;28;20102;-77
2022/01/22 10:43:34;;;;;;;0.70;0.70;;;3.30;99.90;;;;;;5238472;28;20575;-76
2022/01/22 10:46:31;;;;;;;0.40;0.40;;;3.30;99.90;;;;;;5237476;28;20067;-76
2022/01/22 10:49:34;;;;;;;0.70;0.70;;;3.30;99.90;;;;;;5256526;28;20035;-76
2022/01/22 10:52:11;;;;;;;0.90;0.90;;;3.40;99.90;;;;;;5194829;28;20409;-76
2022/01/22 10:54:46;;;;;;;0.45;0.45;;;3.50;99.90;;;;;;5189144;28;20107;-74
2022/01/22 10:57:23;;;;;;;1.42;1.42;;;3.70;99.90;;;;;;5191252;28;20076;-76
2022/01/22 11:00:00;;;;;;;0.60;0.60;;;3.80;99.90;;;;;;5193151;28;20025;-75
2022/01/22 11:02:36;;;;;;;0.57;0.57;;;3.70;99.90;;;;;;5175519;28;20045;-78
2022/01/22 11:05:39;;;;;;;0.60;0.60;;;3.80;99.90;;;;;;5153537;28;20680;-76
2022/01/22 11:08:14;;;;;;;1.02;1.02;;;3.80;99.90;;;;;;5175017;28;20045;-77
2022/01/22 11:10:48;;;;;;;0.70;0.70;;;3.80;99.90;;;;;;5197435;28;20235;-77
2022/01/22 11:13:19;;;;;;;0.75;0.75;;;3.90;99.90;;;;;;5186555;28;20042;-77
2022/01/22 11:15:51;;;;;;;0.68;0.68;;;3.70;99.90;;;;;;5198669;28;20691;-77
2022/01/22 11:18:23;;;;;;;0.60;0.60;;;3.70;99.90;;;;;;5178347;28;20065;-76
2022/01/22 11:21:00;;;;;;;0.40;0.40;;;3.90;99.90;;;;;;5176032;28;20038;-76
2022/01/22 11:23:34;;;;;;;0.50;0.50;;;4.10;99.90;;;;;;5177854;28;20040;-76
2022/01/22 11:26:06;;;;;;;0.52;0.52;;;4.80;99.90;;;;;;5189255;28;20154;-76
2022/01/22 11:28:39;;;;;;;0.52;0.52;;;4.90;99.90;;;;;;5221210;28;20099;-75
2022/01/22 11:31:15;;;;;;;0.60;0.60;;;4.40;99.90;;;;;;5225933;28;20569;-75
2022/01/22 11:33:51;;;;;;;0.57;0.57;;;4.20;99.90;;;;;;5245898;28;20048;-75
2022/01/22 11:36:29;;;;;;;0.50;0.50;;;4.50;99.90;;;;;;5256041;28;20036;-74
2022/01/22 11:39:02;;;;;;;0.40;0.40;;;4.70;99.90;;;;;;5239924;28;20031;-74
2022/01/22 11:41:33;;;;;;;0.70;0.70;;;5.60;99.90;;;;;;5248341;28;20032;-73
2022/01/22 11:44:15;;;;;;;0.60;0.60;;;5.50;99.90;;;;;;5221900;28;20036;-73
2022/01/22 11:46:59;;;;;;;0.50;0.50;;;5.40;99.90;;;;;;5224284;28;20490;-72
2022/01/22 11:49:33;;;;;;;0.80;0.80;;;5.40;99.90;;;;;;5241456;28;20036;-74
2022/01/22 11:52:07;;;;;;;;;;;4.50;99.90;;;;;;5251521;28;20234;-72
2022/01/22 11:55:02;;;;;;;0.50;0.50;;;4.30;99.90;;;;;;5262673;28;19966;-73
2022/01/22 11:57:35;;;;;;;;;;;4.60;99.90;;;;;;5251987;28;20110;-73
2022/01/22 12:00:28;;;;;;;0.80;0.80;;;5.20;99.90;;;;;;5239982;28;20101;-73
2022/01/22 12:03:08;;;;;;;0.45;0.45;;;5.70;99.90;;;;;;5247003;28;20039;-73
2022/01/22 12:05:54;;;;;;;0.40;0.40;;;6.10;99.90;;;;;;5231289;28;20064;-72
2022/01/22 12:08:28;;;;;;;0.35;0.35;;;5.30;99.90;;;;;;5241161;28;20074;-72
2022/01/22 12:16:40;;;;;;;0.82;0.82;;;4.70;99.90;;;;;;5261520;28;20032;-73
2022/01/22 12:20:05;;;;;;;0.70;0.70;;;4.70;99.90;;;;;;5255600;28;20035;-74
2022/01/22 12:22:35;;;;;;;0.50;0.50;;;4.50;99.90;;;;;;5262115;28;20032;-74
2022/01/22 12:25:12;;;;;;;0.82;0.82;;;4.50;99.90;;;;;;5227901;28;20516;-73
2022/01/22 12:27:55;;;;;;;0.63;0.63;;;3.70;99.90;;;;;;5271307;28;20067;-73
2022/01/22 12:30:47;;;;;;;0.60;0.60;;;3.50;99.90;;;;;;5228976;28;20040;-72
2022/01/22 12:33:31;;;;;;;0.68;0.68;;;3.60;99.90;;;;;;5240174;28;20047;-73
2022/01/22 12:36:11;;;;;;;0.43;0.43;;;3.30;99.90;;;;;;5241851;28;20399;-73
2022/01/22 12:38:48;;;;;;;0.50;0.50;;;3.20;99.90;;;;;;5244252;28;20027;-73
2022/01/22 12:44:32;;;;;;;0.30;0.30;;;2.80;99.90;;;;;;5260560;28;20098;-74
2022/01/22 12:47:10;;;;;;;0.60;0.60;;;2.60;99.90;;;;;;5256417;28;20147;-74
2022/01/22 12:49:43;;;;;;;0.60;0.60;;;2.50;99.90;;;;;;5259165;28;20466;-75
2022/01/22 12:52:14;;;;;;;0.40;0.40;;;2.40;99.90;;;;;;5222815;28;20036;-73
2022/01/22 12:54:48;;;;;;;0.50;0.50;;;2.50;99.90;;;;;;5249737;28;20047;-73
2022/01/22 12:57:20;;;;;;;0.38;0.38;;;2.50;99.90;;;;;;5242320;28;20322;-73
2022/01/22 13:00:04;;;;;;;0.50;0.50;;;2.50;99.90;;;;;;5243058;28;20075;-73
2022/01/22 13:02:55;;;;;;;0.70;0.70;;;2.70;99.90;;;;;;5228203;28;20115;-74
2022/01/22 13:05:32;;;;;;;0.50;0.50;;;3.30;99.90;;;;;;5223354;28;20516;-75
2022/01/22 13:08:06;;;;;;;0.60;0.60;;;3.20;99.90;;;;;;5240080;28;20289;-75
2022/01/22 13:10:48;;;;;;;;;;;3.20;99.90;;;;;;5258141;28;20043;-74
2022/01/22 13:13:19;;;;;;;0.50;0.50;;;3.20;99.90;;;;;;5220816;28;19919;-74
2022/01/22 13:16:16;;;;;;;0.60;0.60;;;3.70;99.90;;;;;;5231222;28;20524;-74
2022/01/22 13:19:05;;;;;;;0.70;0.70;;;3.60;99.90;;;;;;5255969;28;20095;-74
2022/01/22 13:21:35;;;;;;;0.40;0.40;;;3.50;99.90;;;;;;5225351;28;20047;-74
2022/01/22 13:24:10;;;;;;;0.45;0.45;;;3.30;99.90;;;;;;5256715;28;20036;-73
2022/01/22 13:27:12;;;;;;;0.63;0.63;;;3.20;99.90;;;;;;5252528;28;20225;-73
2022/01/22 13:29:52;;;;;;;0.50;0.50;;;2.90;99.90;;;;;;5252137;28;20067;-73
2022/01/22 13:36:02;;;;;;;0.50;0.50;;;2.80;99.90;;;;;;5241679;28;20032;-73
2022/01/22 13:49:50;;;;;;;0.57;0.57;;;2.60;99.90;;;;;;5183015;28;20037;-73
2022/01/22 13:52:27;;;;;;;0.63;0.63;;;2.70;99.90;;;;;;5180734;28;20060;-72
2022/01/22 13:55:06;;;;;;;0.63;0.63;;;3.30;99.90;;;;;;5187963;28;20037;-73
2022/01/22 13:57:39;;;;;;;0.50;0.50;;;3.50;99.90;;;;;;5196524;28;20037;-73
2022/01/22 14:00:25;;;;;;;0.65;0.65;;;4.00;99.90;;;;;;5195639;28;20053;-73
2022/01/22 14:03:09;;;;;;;0.60;0.60;;;4.40;99.90;;;;;;5198404;28;20037;-73
2022/01/22 14:05:40;;;;;;;0.68;0.68;;;4.80;99.90;;;;;;5185129;28;20085;-72
2022/01/22 14:08:12;;;;;;;0.40;0.40;;;4.80;99.90;;;;;;5193602;28;20516;-73
2022/01/22 14:10:45;;;;;;;0.52;0.52;;;4.80;99.90;;;;;;5147851;28;20463;-74
2022/01/22 14:13:22;;;;;;;0.52;0.52;;;4.80;99.90;;;;;;5242273;28;20035;-73
2022/01/22 14:15:53;;;;;;;0.52;0.52;;;4.10;99.90;;;;;;5248278;28;20047;-73
2022/01/22 14:18:37;;;;;;;0.70;0.70;;;4.20;99.90;;;;;;5247403;28;20035;-73
2022/01/22 14:21:24;;;;;;;;;;;4.50;99.90;;;;;;5243549;28;20031;-73
2022/01/22 14:23:55;;;;;;;0.50;0.50;;;4.40;99.90;;;;;;5227586;28;19973;-73
2022/01/22 14:26:35;;;;;;;0.50;0.50;;;3.90;99.90;;;;;;5252757;28;20094;-74
2022/01/22 14:29:14;;;;;;;0.57;0.57;;;3.80;99.90;;;;;;5250095;28;20379;-74
2022/01/22 14:31:49;;;;;;;0.50;0.50;;;3.60;99.90;;;;;;5224682;28;20066;-73
2022/01/22 14:34:32;;;;;;;0.57;0.57;;;3.40;99.90;;;;;;5257708;28;20390;-73
2022/01/22 14:37:06;;;;;;;0.68;0.68;;;3.20;99.90;;;;;;5241509;28;20521;-74
2022/01/22 14:46:05;;;;;;;0.60;0.60;;;3.00;99.90;;;;;;5202616;28;20436;-73
2022/01/22 14:48:36;;;;;;;0.30;0.30;;;2.90;99.90;;;;;;5178761;28;20241;-75
2022/01/22 14:51:07;;;;;;;0.50;0.50;;;2.80;99.90;;;;;;5172073;28;20060;-73
2022/01/22 14:53:37;;;;;;;0.50;0.50;;;2.80;99.90;;;;;;5210916;28;20135;-73
2022/01/22 14:56:08;;;;;;;0.50;0.50;;;2.70;99.90;;;;;;5209047;28;20033;-73
2022/01/22 14:58:42;;;;;;;0.45;0.45;;;2.80;99.90;;;;;;5196933;28;20087;-74
2022/01/22 15:01:13;;;;;;;0.60;0.60;;;2.70;99.90;;;;;;5195468;28;20064;-73
2022/01/22 15:03:47;;;;;;;0.50;0.50;;;2.60;99.90;;;;;;5171662;28;20488;-74
2022/01/22 15:06:23;;;;;;;0.50;0.50;;;2.60;99.90;;;;;;5171916;28;20123;-73
2022/01/22 15:08:56;;;;;;;0.50;0.50;;;2.60;99.90;;;;;;5208131;28;20136;-73
2022/01/22 15:11:28;;;;;;;0.43;0.43;;;2.50;99.90;;;;;;5175201;28;20041;-73
2022/01/22 15:14:08;;;;;;;0.75;0.75;;;2.60;99.90;;;;;;5187465;28;20045;-74
2022/01/22 15:16:50;;;;;;;0.50;0.50;;;2.50;99.90;;;;;;5206542;28;20488;-74
2022/01/22 15:19:23;;;;;;;0.40;0.40;;;2.50;99.90;;;;;;5175020;28;20041;-74
2022/01/22 15:21:57;;;;;;;0.50;0.50;;;2.40;99.90;;;;;;5238726;28;20048;-73
2022/01/22 15:24:31;;;;;;;0.65;0.65;;;2.40;99.90;;;;;;5257019;28;20043;-73
2022/01/22 15:27:07;;;;;;;0.70;0.70;;;2.40;99.90;;;;;;5271675;28;20546;-74
2022/01/22 15:32:45;;;;;;;0.57;0.57;;;2.40;99.90;;;;;;5240921;28;20360;-73
2022/01/22 15:35:23;;;;;;;0.50;0.50;;;2.40;99.90;;;;;;5263771;28;20032;-74
2022/01/22 15:38:02;;;;;;;0.40;0.40;;;2.40;99.90;;;;;;5245913;28;20563;-74
2022/01/22 15:40:38;;;;;;;0.50;0.50;;;2.20;99.90;;;;;;5264431;28;20639;-75
2022/01/22 15:43:09;;;;;;;0.45;0.45;;;2.20;99.90;;;;;;5245077;28;20035;-74